Time;durP1;ratioP1;P1;durP2;ratioP2;P2;SDS_P1;SDS_P2;PMS_P1;PMS_P2;Temp;Humidity;BMP_temperature;BMP_pressure;BME280_temperature;BME280_humidity;BME280_pressure;Samples;Min_cycle;Max_cycle;Signal;HPM_P1;HPM_P2
2024/04/17 00:02:08;;;;;;;3.05;2.03;;;;;;;4.16;100.00;99985.50;9108983;26;20002;-82
2024/04/17 00:06:11;;;;;;;3.58;2.13;;;;;;;4.28;100.00;99990.56;9105371;26;20034;-81
2024/04/17 00:10:12;;;;;;;2.50;1.67;;;;;;;4.35;100.00;99983.69;9106432;26;20022;-81
2024/04/17 00:14:14;;;;;;;4.05;1.90;;;;;;;4.37;100.00;99990.50;9106171;26;20002;-80
2024/04/17 00:18:16;;;;;;;3.97;1.73;;;;;;;4.05;100.00;99996.38;9106402;26;20078;-80
2024/04/17 00:22:17;;;;;;;3.22;1.75;;;;;;;3.92;100.00;100001.22;9106615;26;20037;-80
2024/04/17 00:26:19;;;;;;;3.30;1.85;;;;;;;3.99;100.00;100009.38;9083185;26;20006;-80
2024/04/17 00:30:21;;;;;;;3.47;1.88;;;;;;;3.87;100.00;100008.81;9116138;26;20009;-80
2024/04/17 00:34:22;;;;;;;2.90;1.83;;;;;;;3.88;100.00;99997.22;9113664;26;20398;-80
2024/04/17 00:38:24;;;;;;;2.70;1.70;;;;;;;3.86;100.00;99994.72;9110571;26;20010;-80
2024/04/17 00:42:26;;;;;;;3.60;1.77;;;;;;;3.54;100.00;100000.53;9108873;26;19998;-80
2024/04/17 00:46:30;;;;;;;3.90;2.50;;;;;;;3.73;100.00;100017.28;9076831;26;20006;-80
2024/04/17 00:50:31;;;;;;;3.28;2.22;;;;;;;3.63;100.00;100017.34;9122061;26;19991;-79
2024/04/17 00:54:33;;;;;;;4.85;2.13;;;;;;;3.56;100.00;100017.09;9091645;26;20017;-79
2024/04/17 00:58:35;;;;;;;5.78;2.08;;;;;;;3.57;100.00;100017.94;9115001;26;20006;-80
2024/04/17 01:02:37;;;;;;;3.72;2.03;;;;;;;3.51;100.00;100016.72;9110978;26;20017;-80
2024/04/17 01:06:41;;;;;;;2.65;2.08;;;;;;;3.54;100.00;100007.66;9108866;26;20009;-79
2024/04/17 01:10:43;;;;;;;2.85;2.10;;;;;;;3.60;100.00;100017.63;9107166;26;20021;-79
2024/04/17 01:14:45;;;;;;;5.70;2.28;;;;;;;3.73;100.00;100025.22;9077160;26;20009;-79
2024/04/17 01:18:47;;;;;;;3.72;2.33;;;;;;;3.63;100.00;100031.41;9109824;26;20017;-80
2024/04/17 01:22:49;;;;;;;3.55;1.88;;;;;;;3.78;100.00;100021.13;9110755;26;19998;-81
2024/04/17 01:26:50;;;;;;;8.60;2.30;;;;;;;3.75;100.00;100031.22;9114906;26;20353;-80
2024/04/17 01:30:52;;;;;;;3.67;2.40;;;;;;;3.74;100.00;100021.59;9112087;26;20059;-80
2024/04/17 01:34:53;;;;;;;3.67;2.53;;;;;;;3.66;100.00;100032.94;9108711;26;20030;-80
2024/04/17 01:38:55;;;;;;;2.92;1.90;;;;;;;3.86;100.00;100018.56;9108189;26;19999;-80
2024/04/17 01:42:57;;;;;;;2.65;2.05;;;;;;;3.90;100.00;100027.88;9108890;26;20353;-80
2024/04/17 01:46:58;;;;;;;3.45;2.20;;;;;;;3.93;100.00;100024.09;9076488;26;20018;-80
2024/04/17 01:51:00;;;;;;;3.88;2.30;;;;;;;3.80;100.00;100016.50;9110292;26;20046;-79
2024/04/17 01:55:02;;;;;;;4.40;1.80;;;;;;;3.60;100.00;100023.75;9085911;26;20005;-80
2024/04/17 01:59:04;;;;;;;5.50;2.50;;;;;;;3.54;100.00;100034.97;9085866;26;20002;-79
2024/04/17 02:03:06;;;;;;;3.22;1.95;;;;;;;3.38;100.00;100026.84;9113878;26;19998;-80
2024/04/17 02:07:08;;;;;;;4.25;2.30;;;;;;;3.12;100.00;100033.78;9113208;26;20066;-80
2024/04/17 02:11:10;;;;;;;3.25;1.92;;;;;;;3.15;100.00;100042.28;9080972;26;20084;-82
2024/04/17 02:15:12;;;;;;;3.00;1.98;;;;;;;3.17;100.00;100042.16;9080268;26;20002;-81
2024/04/17 02:19:14;;;;;;;6.25;2.10;;;;;;;3.28;100.00;100031.34;9084206;26;20002;-79
2024/04/17 02:23:15;;;;;;;3.05;1.83;;;;;;;3.32;100.00;100038.88;9118880;26;20017;-80
2024/04/17 02:27:17;;;;;;;3.53;1.88;;;;;;;3.10;100.00;100051.63;9119661;26;20009;-79
2024/04/17 02:31:18;;;;;;;4.65;2.25;;;;;;;3.35;100.00;100042.19;9122418;26;19998;-79
2024/04/17 02:35:20;;;;;;;3.90;1.98;;;;;;;3.34;100.00;100044.00;9125224;26;20052;-79
2024/04/17 02:39:22;;;;;;;3.05;1.88;;;;;;;3.12;100.00;100052.31;9120319;26;20002;-80
2024/04/17 02:43:23;;;;;;;3.45;1.90;;;;;;;3.15;100.00;100046.75;9123952;26;20009;-79
2024/04/17 02:47:25;;;;;;;2.95;2.20;;;;;;;3.12;100.00;100054.97;9122420;26;20010;-79
2024/04/17 02:51:27;;;;;;;2.72;2.05;;;;;;;3.12;100.00;100054.97;9122145;26;20021;-81
2024/04/17 02:55:28;;;;;;;7.07;2.30;;;;;;;3.38;100.00;100055.97;9077796;26;20021;-79
2024/04/17 02:59:30;;;;;;;6.53;2.53;;;;;;;3.28;100.00;100058.66;9113002;26;20014;-79
2024/04/17 03:03:32;;;;;;;3.10;2.13;;;;;;;3.14;100.00;100069.75;9112781;26;20144;-80
2024/04/17 03:07:33;;;;;;;4.97;2.22;;;;;;;3.19;100.00;100070.13;9114854;26;20016;-79
2024/04/17 03:11:35;;;;;;;3.22;2.10;;;;;;;3.26;100.00;100073.03;9092346;26;20009;-80
2024/04/17 03:15:37;;;;;;;3.00;2.25;;;;;;;3.21;100.00;100080.56;9127638;26;20013;-79
2024/04/17 03:19:39;;;;;;;5.00;2.17;;;;;;;3.31;100.00;100079.56;9096460;26;20002;-80
2024/04/17 03:23:41;;;;;;;6.50;2.22;;;;;;;3.52;100.00;100091.72;9120594;26;20017;-80
2024/04/17 03:27:42;;;;;;;5.60;2.05;;;;;;;3.27;100.00;100094.06;9116956;26;20002;-79
2024/04/17 03:31:44;;;;;;;6.55;2.40;;;;;;;3.37;100.00;100088.72;9112450;26;20006;-79
2024/04/17 03:35:56;;;;;;;7.05;2.30;;;;;;;3.53;100.00;100094.22;9120335;26;19998;-78
2024/04/17 03:39:58;;;;;;;5.10;2.40;;;;;;;3.62;100.00;100097.78;9086386;26;20002;-78
2024/04/17 03:44:00;;;;;;;2.53;1.98;;;;;;;3.75;100.00;100100.94;9119333;26;20002;-80
2024/04/17 03:48:01;;;;;;;5.85;2.33;;;;;;;3.62;100.00;100109.22;9112425;26;20031;-79
2024/04/17 03:52:04;;;;;;;5.88;2.60;;;;;;;3.72;100.00;100116.31;9118356;26;20022;-79
2024/04/17 03:56:06;;;;;;;4.32;1.98;;;;;;;3.52;100.00;100111.09;9121678;26;20013;-78
2024/04/17 04:00:08;;;;;;;3.97;2.17;;;;;;;3.51;100.00;100117.38;9125838;26;20002;-79
2024/04/17 04:04:10;;;;;;;3.20;1.92;;;;;;;3.92;100.00;100104.59;9125963;26;20044;-79
2024/04/17 04:08:11;;;;;;;6.47;2.17;;;;;;;3.54;100.00;100113.59;9126477;26;20002;-79
2024/04/17 04:12:13;;;;;;;4.30;2.30;;;;;;;3.54;100.00;100114.44;9123573;26;20074;-79
2024/04/17 04:16:15;;;;;;;5.57;2.30;;;;;;;3.31;100.00;100121.09;9091450;26;19994;-79
2024/04/17 04:20:16;;;;;;;4.85;2.10;;;;;;;3.43;100.00;100127.88;9122713;26;20022;-80
2024/04/17 04:24:18;;;;;;;5.03;2.00;;;;;;;3.50;100.00;100133.44;9117718;26;20002;-79
2024/04/17 04:28:20;;;;;;;10.00;2.38;;;;;;;3.88;100.00;100127.09;9089627;26;20013;-80
2024/04/17 04:32:22;;;;;;;6.45;2.13;;;;;;;3.98;100.00;100140.28;9121772;26;20078;-80
2024/04/17 04:36:23;;;;;;;5.57;2.47;;;;;;;3.74;100.00;100140.84;9109742;26;20008;-80
2024/04/17 04:40:25;;;;;;;5.15;2.60;;;;;;;3.79;100.00;100149.16;9079389;26;20003;-80
2024/04/17 04:44:27;;;;;;;5.70;2.80;;;;;;;3.58;100.00;100147.59;9113337;26;20047;-80
2024/04/17 04:48:29;;;;;;;3.85;2.47;;;;;;;3.97;100.00;100138.59;9078557;26;20510;-80
2024/04/17 04:52:31;;;;;;;4.43;2.72;;;;;;;4.29;100.00;100146.06;9111551;26;20002;-80
2024/04/17 04:56:33;;;;;;;6.85;2.88;;;;;;;4.19;100.00;100154.09;9111421;26;20002;-80
2024/04/17 05:00:35;;;;;;;4.20;2.63;;;;;;;3.85;100.00;100161.84;9080752;26;20044;-81
2024/04/17 05:04:36;;;;;;;4.55;2.70;;;;;;;4.16;100.00;100172.94;9113828;26;20002;-80
2024/04/17 05:08:38;;;;;;;4.40;2.70;;;;;;;4.36;100.00;100173.69;9112368;26;20010;-80
2024/04/17 05:12:40;;;;;;;4.57;2.95;;;;;;;4.12;100.00;100172.41;9081737;26;20013;-80
2024/04/17 05:16:41;;;;;;;4.95;2.80;;;;;;;3.84;100.00;100182.22;9082889;26;20006;-81
2024/04/17 05:20:43;;;;;;;5.60;2.75;;;;;;;4.57;100.00;100181.34;9114926;26;20006;-80
2024/04/17 05:24:45;;;;;;;5.47;3.05;;;;;;;4.65;100.00;100178.72;9079804;26;19998;-80
2024/04/17 05:28:47;;;;;;;4.53;2.70;;;;;;;4.28;100.00;100179.72;9079783;26;20013;-80
2024/04/17 05:32:49;;;;;;;5.47;2.28;;;;;;;4.38;100.00;100188.44;9107270;26;20070;-80
2024/04/17 05:36:51;;;;;;;4.65;2.85;;;;;;;4.49;100.00;100190.84;9108784;26;20014;-81
2024/04/17 05:40:53;;;;;;;5.97;2.33;;;;;;;4.58;100.00;100196.25;9075759;26;20010;-80
2024/04/17 05:44:55;;;;;;;4.93;1.98;;;;;;;4.71;100.00;100199.38;9106010;26;20020;-81
2024/04/17 05:48:56;;;;;;;4.82;2.30;;;;;;;5.02;100.00;100203.25;9059097;26;20006;-80
2024/04/17 05:52:58;;;;;;;9.73;2.70;;;;;;;4.87;100.00;100204.84;9046780;26;19999;-81
2024/04/17 05:57:00;;;;;;;3.38;2.33;;;;;;;4.90;100.00;100201.88;9048406;26;20015;-80
2024/04/17 06:01:01;;;;;;;4.40;2.40;;;;;;;5.09;100.00;100208.81;9049235;26;19999;-81
2024/04/17 06:05:04;;;;;;;5.32;2.55;;;;;;;5.20;100.00;100210.38;9095821;26;20013;-80
2024/04/17 06:09:06;;;;;;;4.57;2.60;;;;;;;5.04;100.00;100206.63;9109336;26;20345;-81
2024/04/17 06:13:08;;;;;;;5.00;2.13;;;;;;;4.68;100.00;100213.75;9108889;26;20002;-81
2024/04/17 06:17:10;;;;;;;7.22;2.67;;;;;;;5.02;100.00;100208.56;9107350;26;20005;-81
2024/04/17 06:21:12;;;;;;;6.43;2.25;;;;;;;5.79;100.00;100214.06;9106295;26;20002;-81
2024/04/17 06:25:13;;;;;;;6.10;2.08;;;;;;;5.84;98.74;100217.06;9075544;26;20078;-80
2024/04/17 06:29:15;;;;;;;3.92;2.28;;;;;;;5.27;100.00;100217.56;9105330;26;20017;-81
2024/04/17 06:33:17;;;;;;;4.03;2.00;;;;;;;5.71;97.96;100217.50;9100518;26;20002;-81
2024/04/17 06:37:18;;;;;;;6.25;2.10;;;;;;;5.89;94.86;100223.56;9063672;26;20021;-83
2024/04/17 06:41:20;;;;;;;3.47;1.80;;;;;;;5.95;96.78;100225.63;9096140;26;20006;-78
2024/04/17 06:45:22;;;;;;;5.70;1.70;;;;;;;6.04;92.90;100229.97;9061516;26;20043;-77
2024/04/17 06:49:25;;;;;;;22.95;3.83;;;;;;;6.37;93.18;100243.41;9055851;26;20053;-81
2024/04/17 06:53:27;;;;;;;12.68;2.30;;;;;;;6.48;90.66;100227.16;9058594;26;20006;-82
2024/04/17 06:57:29;;;;;;;4.50;2.03;;;;;;;6.35;91.32;100238.25;9103616;26;20009;-80
2024/04/17 07:01:32;;;;;;;4.10;1.90;;;;;;;6.57;89.14;100230.63;9067634;26;20030;-80
2024/04/17 07:05:34;;;;;;;2.35;1.55;;;;;;;6.58;88.00;100235.81;9071482;26;20006;-81
2024/04/17 07:09:35;;;;;;;3.70;1.77;;;;;;;6.36;89.71;100236.41;9116019;26;20017;-82
2024/04/17 07:13:37;;;;;;;6.85;2.38;;;;;;;6.74;89.71;100223.50;9108970;26;20013;-83
2024/04/17 07:17:39;;;;;;;4.88;1.70;;;;;;;6.56;91.58;100223.66;9105597;26;20003;-82
2024/04/17 07:21:40;;;;;;;4.82;1.80;;;;;;;6.22;89.38;100235.19;9049479;26;20003;-82
2024/04/17 07:25:42;;;;;;;5.90;1.80;;;;;;;6.25;93.58;100234.06;9065049;26;20068;-82
2024/04/17 07:29:44;;;;;;;3.65;2.00;;;;;;;6.57;90.31;100230.63;9088200;26;19994;-80
2024/04/17 07:33:49;;;;;;;2.72;1.92;;;;;;;6.60;89.90;100231.16;9090886;26;20002;-82
2024/04/17 07:37:51;;;;;;;4.20;1.83;;;;;;;6.81;86.80;100229.88;9122427;26;19998;-79
2024/04/17 07:41:52;;;;;;;2.88;1.95;;;;;;;6.16;86.97;100233.19;9094006;26;20013;-79
2024/04/17 07:45:54;;;;;;;4.10;1.60;;;;;;;6.86;82.49;100233.69;9087427;26;20074;-81
2024/04/17 07:49:55;;;;;;;22.15;2.67;;;;;;;6.78;86.34;100235.53;9089170;26;20005;-80
2024/04/17 07:53:57;;;;;;;4.68;1.77;;;;;;;7.05;81.62;100229.88;9116900;26;20008;-81
2024/04/17 07:57:59;;;;;;;4.10;1.88;;;;;;;7.18;78.48;100237.38;9091019;26;20006;-81
2024/04/17 08:02:01;;;;;;;4.35;1.67;;;;;;;7.37;79.04;100236.19;9113517;26;20002;-83
2024/04/17 08:06:03;;;;;;;5.18;1.75;;;;;;;7.31;77.08;100239.53;9112725;26;20017;-80
2024/04/17 08:10:04;;;;;;;5.50;1.58;;;;;;;7.48;74.45;100242.00;9107161;26;20003;-79
2024/04/17 08:14:06;;;;;;;4.45;1.65;;;;;;;7.09;79.25;100233.84;9093263;26;20017;-80
2024/04/17 08:18:08;;;;;;;2.47;1.80;;;;;;;7.54;80.67;100237.81;9116657;26;19999;-80
2024/04/17 08:22:12;;;;;;;3.53;1.70;;;;;;;7.24;81.52;100247.34;9112147;26;20014;-81
2024/04/17 08:26:14;;;;;;;3.13;1.73;;;;;;;6.89;86.13;100248.50;9118516;26;20002;-82
2024/04/17 08:30:16;;;;;;;7.18;2.40;;;;;;;7.29;82.78;100242.38;9120465;25;20010;-80
2024/04/17 08:34:18;;;;;;;6.53;2.08;;;;;;;7.21;85.74;100250.34;9107414;26;20006;-84
2024/04/17 08:38:19;;;;;;;5.18;2.00;;;;;;;7.33;82.76;100243.69;9074663;26;20014;-84
2024/04/17 08:42:25;;;;;;;2.75;2.13;;;;;;;7.31;81.03;100248.34;9042760;26;20010;-79
2024/04/17 08:46:29;;;;;;;3.90;2.15;;;;;;;7.51;78.63;100249.66;9079596;26;20465;-81
2024/04/17 08:50:33;;;;;;;4.47;1.75;;;;;;;7.74;78.45;100244.44;9104658;26;20366;-82
2024/04/17 08:54:37;;;;;;;3.55;1.58;;;;;;;7.99;76.51;100247.88;9017799;26;20339;-79
2024/04/17 08:58:43;;;;;;;6.53;1.90;;;;;;;8.36;74.84;100247.25;9098453;26;20499;-83
2024/04/17 09:02:47;;;;;;;2.25;1.45;;;;;;;8.58;73.23;100244.78;9096062;26;20014;-81
2024/04/17 09:06:51;;;;;;;5.78;1.90;;;;;;;8.72;69.38;100250.22;9071948;26;20006;-82
2024/04/17 09:10:56;;;;;;;2.33;1.45;;;;;;;8.81;65.94;100247.47;9059791;26;20030;-81
2024/04/17 09:14:59;;;;;;;6.28;1.60;;;;;;;8.76;66.87;100250.69;9101652;26;20003;-80
2024/04/17 09:19:00;;;;;;;2.85;1.13;;;;;;;8.80;67.77;100251.16;9098278;26;20013;-81
2024/04/17 09:23:10;;;;;;;2.75;1.40;;;;;;;8.79;68.12;100241.47;9101114;26;20014;-83
2024/04/17 09:27:15;;;;;;;3.55;1.58;;;;;;;8.52;70.02;100240.16;9089943;26;20002;-81
2024/04/17 09:31:16;;;;;;;2.10;1.25;;;;;;;9.10;68.33;100242.25;9103753;26;20006;-81
2024/04/17 09:35:18;;;;;;;1.63;1.30;;;;;;;10.39;63.19;100241.91;9070237;26;20006;-82
2024/04/17 09:39:20;;;;;;;5.85;1.48;;;;;;;10.95;59.11;100241.28;9079808;26;19999;-81
2024/04/17 09:43:26;;;;;;;2.10;1.45;;;;;;;11.45;57.66;100230.41;9092791;26;20055;-83
2024/04/17 09:47:32;;;;;;;1.83;1.13;;;;;;;9.92;60.72;100231.59;9017670;26;20013;-81
2024/04/17 09:51:36;;;;;;;3.05;1.35;;;;;;;9.59;64.66;100239.16;9039159;26;20013;-82
2024/04/17 09:55:38;;;;;;;3.08;1.40;;;;;;;8.93;66.02;100236.22;9073499;26;20001;-81
2024/04/17 09:59:42;;;;;;;2.92;1.30;;;;;;;8.73;64.91;100225.16;9077889;26;20002;-81
2024/04/17 10:03:44;;;;;;;3.15;1.13;;;;;;;9.64;61.60;100228.72;9086953;26;20034;-81
2024/04/17 10:07:47;;;;;;;2.05;1.20;;;;;;;10.31;56.82;100212.56;9066667;26;20449;-81
2024/04/17 10:11:52;;;;;;;5.65;1.52;;;;;;;11.29;54.29;100211.06;9077413;26;20006;-81
2024/04/17 10:15:54;;;;;;;2.28;1.10;;;;;;;12.31;50.61;100205.88;9036950;26;20030;-82
2024/04/17 10:19:56;;;;;;;2.58;1.20;;;;;;;12.72;49.90;100200.44;9108256;26;20009;-82
2024/04/17 10:23:59;;;;;;;4.10;1.40;;;;;;;12.54;51.21;100197.50;9107528;26;20009;-83
2024/04/17 10:28:11;;;;;;;2.25;1.20;;;;;;;12.48;51.63;100201.00;9094669;26;20002;-80
2024/04/17 10:32:16;;;;;;;2.08;1.10;;;;;;;12.14;44.45;100197.34;9062285;26;20002;-79
2024/04/17 10:36:18;;;;;;;1.00;0.70;;;;;;;10.69;47.14;100194.44;9099163;26;20021;-80
2024/04/17 10:40:21;;;;;;;4.00;1.10;;;;;;;10.46;46.16;100210.69;9078075;26;20010;-80
2024/04/17 10:44:22;;;;;;;2.53;1.45;;;;;;;11.82;44.07;100195.34;9075547;26;20017;-80
2024/04/17 10:48:26;;;;;;;2.20;0.90;;;;;;;11.91;44.98;100191.47;9114766;26;20331;-80
2024/04/17 10:52:30;;;;;;;2.13;1.20;;;;;;;11.82;44.47;100190.81;9084315;26;20001;-79
2024/04/17 10:56:32;;;;;;;2.78;0.90;;;;;;;14.06;42.27;100189.41;9115736;26;19998;-79
2024/04/17 11:00:33;;;;;;;2.35;1.10;;;;;;;14.39;42.25;100183.84;9116306;26;20002;-79
2024/04/17 11:04:36;;;;;;;3.78;1.33;;;;;;;13.40;42.65;100190.38;9109370;26;19998;-79
2024/04/17 11:08:41;;;;;;;1.35;0.80;;;;;;;12.36;43.13;100192.72;9072932;26;20001;-80
2024/04/17 11:12:58;;;;;;;1.60;0.88;;;;;;;12.04;42.98;100189.69;9061285;26;20013;-79
2024/04/17 11:17:00;;;;;;;2.35;1.33;;;;;;;12.24;46.23;100189.75;9102713;26;20393;-80
2024/04/17 11:21:03;;;;;;;3.42;1.42;;;;;;;11.79;43.43;100196.56;9090296;26;19995;-80
2024/04/17 11:25:04;;;;;;;4.22;1.00;;;;;;;11.65;41.96;100178.72;9101254;26;20017;-81
2024/04/17 11:29:14;;;;;;;2.03;1.00;;;;;;;13.39;41.84;100180.66;9069401;26;20328;-78
2024/04/17 11:33:18;;;;;;;2.28;1.00;;;;;;;14.20;39.47;100174.81;9081915;26;20010;-82
2024/04/17 11:37:21;;;;;;;5.03;1.00;;;;;;;14.86;37.02;100176.34;9100969;26;20018;-81
2024/04/17 11:41:22;;;;;;;2.67;1.10;;;;;;;13.26;39.55;100176.09;9095462;26;20118;-82
2024/04/17 11:45:24;;;;;;;5.50;1.25;;;;;;;13.85;40.13;100185.91;9056881;26;20353;-82
2024/04/17 11:49:26;;;;;;;1.80;0.88;;;;;;;13.65;39.53;100187.84;9069939;26;20015;-79
2024/04/17 11:53:27;;;;;;;2.85;0.77;;;;;;;14.94;38.13;100179.59;9047487;26;20014;-79
2024/04/17 11:57:29;;;;;;;1.20;0.70;;;;;;;15.54;34.72;100184.47;9051058;26;20435;-81
2024/04/17 12:01:31;;;;;;;2.97;1.20;;;;;;;15.03;37.54;100183.66;9056056;26;20006;-82
2024/04/17 12:05:33;;;;;;;2.70;1.23;;;;;;;13.69;37.98;100188.25;9073076;26;20024;-82
2024/04/17 12:09:35;;;;;;;2.83;1.40;;;;;;;13.84;37.29;100188.81;9097011;26;20407;-80
2024/04/17 12:13:36;;;;;;;2.85;1.65;;;;;;;14.55;37.04;100191.44;9044890;26;20015;-79
2024/04/17 12:17:38;;;;;;;3.10;0.98;;;;;;;15.18;35.08;100180.66;9105060;26;20017;-81
2024/04/17 12:21:43;;;;;;;2.42;0.75;;;;;;;14.27;34.62;100186.41;9098845;26;20010;-81
2024/04/17 12:30:06;;;;;;;1.25;0.85;;;;;;;12.90;35.62;100176.47;9078612;26;19998;-82
2024/04/17 12:34:08;;;;;;;2.78;1.00;;;;;;;14.85;36.44;100174.69;9025895;26;20017;-80
2024/04/17 12:38:09;;;;;;;2.42;1.35;;;;;;;14.94;34.57;100179.59;9057182;26;20006;-80
2024/04/17 12:42:12;;;;;;;1.52;0.70;;;;;;;15.33;33.03;100177.63;9074711;26;20006;-80
2024/04/17 12:46:14;;;;;;;1.85;1.00;;;;;;;14.91;32.60;100171.94;9102651;26;20070;-79
2024/04/17 12:50:19;;;;;;;1.77;1.20;;;;;;;12.82;36.60;100183.91;9105677;26;20030;-80
2024/04/17 12:54:21;;;;;;;3.00;1.33;;;;;;;13.02;38.03;100182.09;9084141;26;20319;-78
2024/04/17 12:58:22;;;;;;;2.28;1.10;;;;;;;12.95;37.61;100186.63;9094690;26;20002;-79
2024/04/17 13:02:24;;;;;;;3.58;1.20;;;;;;;12.84;38.44;100182.69;9098422;26;20013;-79
2024/04/17 13:06:35;;;;;;;1.40;0.98;;;;;;;13.47;36.48;100188.50;9096143;26;20010;-79
2024/04/17 13:10:36;;;;;;;2.05;1.15;;;;;;;14.94;33.48;100176.09;9107956;26;20012;-81
2024/04/17 13:14:39;;;;;;;1.98;1.35;;;;;;;14.00;34.64;100179.47;9076926;26;20002;-78
2024/04/17 13:18:41;;;;;;;2.35;0.95;;;;;;;13.40;35.87;100182.31;9088238;26;19998;-79
2024/04/17 13:22:43;;;;;;;3.75;1.10;;;;;;;13.66;37.29;100180.59;9063955;26;20019;-80
2024/04/17 13:26:50;;;;;;;3.40;1.98;;;;;;;12.97;36.58;100184.53;9075893;26;20005;-80
2024/04/17 13:31:02;;;;;;;3.63;1.17;;;;;;;11.92;39.13;100191.28;9064941;26;20006;-80
2024/04/17 13:35:04;;;;;;;6.03;1.42;;;;;;;11.84;40.04;100185.25;9095814;26;20349;-79
2024/04/17 13:39:06;;;;;;;1.77;1.23;;;;;;;11.96;40.50;100184.47;9071827;26;20007;-78
2024/04/17 13:43:08;;;;;;;1.73;1.15;;;;;;;12.53;40.31;100188.63;9096013;26;20002;-80
2024/04/17 13:47:09;;;;;;;1.35;0.88;;;;;;;13.15;38.64;100189.31;9067442;26;20005;-82
2024/04/17 13:51:12;;;;;;;1.67;1.00;;;;;;;13.48;38.47;100190.16;9085041;26;20071;-79
2024/04/17 13:55:14;;;;;;;2.00;1.10;;;;;;;12.78;42.10;100190.72;9074648;26;20002;-80
2024/04/17 13:59:15;;;;;;;5.68;1.40;;;;;;;12.78;43.33;100196.94;9103587;26;20013;-80
2024/04/17 14:03:17;;;;;;;3.33;1.42;;;;;;;13.01;45.09;100196.53;9072235;26;20047;-81
2024/04/17 14:07:19;;;;;;;3.13;1.48;;;;;;;13.25;44.63;100192.44;9104588;26;20454;-81
2024/04/17 14:11:20;;;;;;;3.55;2.67;;;;;;;12.33;45.75;100203.84;9105817;26;20017;-80
2024/04/17 14:15:22;;;;;;;8.00;1.40;;;;;;;11.89;48.16;100199.72;9076026;26;20009;-79
2024/04/17 14:19:24;;;;;;;2.85;1.27;;;;;;;12.15;47.51;100204.41;9110579;26;20014;-79
2024/04/17 14:23:25;;;;;;;3.90;1.20;;;;;;;11.98;46.40;100206.59;9103117;26;20450;-78
2024/04/17 14:27:27;;;;;;;1.70;1.00;;;;;;;11.63;45.49;100204.91;9066727;26;20002;-80
2024/04/17 14:31:29;;;;;;;2.75;1.40;;;;;;;11.56;46.61;100215.59;9109200;26;20022;-79
2024/04/17 14:35:30;;;;;;;5.13;1.13;;;;;;;11.03;46.62;100208.97;9111742;26;20003;-79
2024/04/17 14:39:32;;;;;;;1.80;1.20;;;;;;;11.27;46.80;100205.88;9109761;26;20048;-79
2024/04/17 14:43:34;;;;;;;1.98;1.20;;;;;;;11.55;44.34;100213.09;9074212;26;20017;-77
2024/04/17 14:47:37;;;;;;;1.50;1.02;;;;;;;12.28;43.96;100217.03;9101912;26;20002;-82
2024/04/17 14:51:39;;;;;;;2.45;1.10;;;;;;;12.14;43.65;100221.53;9072809;26;20079;-79
2024/04/17 14:55:41;;;;;;;1.35;0.80;;;;;;;12.11;41.21;100221.09;9095599;26;19998;-84
2024/04/17 14:59:42;;;;;;;2.10;1.13;;;;;;;11.49;43.66;100236.19;9100806;26;20130;-79
2024/04/17 15:03:44;;;;;;;2.92;1.13;;;;;;;12.00;44.59;100231.41;9068467;26;20009;-79
2024/04/17 15:07:46;;;;;;;2.17;1.33;;;;;;;11.82;43.77;100236.44;9067954;26;20016;-80
2024/04/17 15:11:48;;;;;;;3.88;1.38;;;;;;;11.97;46.60;100236.31;9103388;26;20030;-79
2024/04/17 15:15:56;;;;;;;1.20;0.80;;;;;;;11.63;43.76;100229.91;9103017;26;20005;-80
2024/04/17 15:19:58;;;;;;;2.40;1.00;;;;;;;11.34;45.60;100233.59;9057971;26;20042;-79
2024/04/17 15:24:00;;;;;;;6.32;3.08;;;;;;;11.12;46.04;100231.97;9108119;26;20013;-82
2024/04/17 15:28:01;;;;;;;4.18;1.88;;;;;;;10.95;46.06;100236.75;9072419;26;20010;-84
2024/04/17 15:32:03;;;;;;;2.38;0.93;;;;;;;10.77;46.86;100233.69;9075209;26;20050;-79
2024/04/17 15:36:06;;;;;;;2.47;1.08;;;;;;;10.93;47.67;100229.91;9104442;26;20005;-79
2024/04/17 15:40:09;;;;;;;3.03;1.10;;;;;;;10.94;46.57;100228.91;9067121;26;20013;-81
2024/04/17 15:44:10;;;;;;;3.15;1.63;;;;;;;11.15;46.54;100223.53;9086632;26;19998;-78
2024/04/17 15:48:12;;;;;;;3.20;1.48;;;;;;;11.27;47.81;100223.81;9105399;26;20018;-79
2024/04/17 15:52:14;;;;;;;2.10;1.35;;;;;;;10.98;49.15;100222.13;9098420;26;19999;-80
2024/04/17 15:56:17;;;;;;;2.45;1.08;;;;;;;10.66;52.28;100237.69;9069122;26;20014;-80
2024/04/17 16:00:19;;;;;;;2.05;1.30;;;;;;;11.03;51.21;100239.31;9102903;26;20021;-81
2024/04/17 16:04:21;;;;;;;1.60;0.90;;;;;;;11.25;51.64;100233.91;9068742;26;20013;-81
2024/04/17 16:08:24;;;;;;;3.75;1.52;;;;;;;10.66;50.77;100234.19;9089745;26;20070;-80
2024/04/17 16:12:27;;;;;;;1.48;1.00;;;;;;;11.13;50.33;100241.66;9054933;26;20052;-80
2024/04/17 16:16:30;;;;;;;2.70;0.95;;;;;;;11.32;49.61;100241.00;9061437;26;20059;-80
2024/04/17 16:20:32;;;;;;;1.75;0.80;;;;;;;11.53;48.72;100242.00;9068511;26;20026;-81
2024/04/17 16:24:35;;;;;;;2.25;1.00;;;;;;;11.80;48.44;100243.84;9103228;26;20002;-79
2024/04/17 16:28:37;;;;;;;3.55;2.30;;;;;;;12.81;46.16;100244.06;9071079;26;19998;-80
2024/04/17 16:32:39;;;;;;;3.10;1.60;;;;;;;13.16;45.49;100244.75;9085545;26;20011;-83
2024/04/17 16:36:40;;;;;;;3.88;2.08;;;;;;;13.60;42.91;100259.50;9086463;26;19998;-81
2024/04/17 16:40:43;;;;;;;4.88;1.48;;;;;;;13.11;42.19;100255.31;9102214;26;20002;-81
2024/04/17 16:44:46;;;;;;;4.25;0.90;;;;;;;14.12;40.35;100254.00;9098644;26;20507;-80
2024/04/17 16:48:49;;;;;;;1.90;1.13;;;;;;;13.47;41.71;100257.63;9097468;26;20014;-82
2024/04/17 16:52:56;;;;;;;1.83;1.02;;;;;;;12.72;44.06;100270.34;9068488;26;20013;-80
2024/04/17 16:56:58;;;;;;;2.38;1.05;;;;;;;13.16;44.01;100272.47;9096819;26;20002;-80
2024/04/17 17:01:07;;;;;;;2.50;1.55;;;;;;;13.23;44.70;100275.22;9096496;26;19998;-80
2024/04/17 17:05:09;;;;;;;4.95;2.22;;;;;;;13.25;44.20;100275.84;9067500;26;20522;-81
2024/04/17 17:09:11;;;;;;;2.90;1.05;;;;;;;12.29;46.69;100288.53;9097373;26;20458;-82
2024/04/17 17:13:13;;;;;;;4.47;1.88;;;;;;;12.59;46.19;100283.72;9063733;26;20438;-80
2024/04/17 17:17:15;;;;;;;3.70;1.30;;;;;;;12.38;46.21;100284.66;9095992;26;20002;-81
2024/04/17 17:21:17;;;;;;;7.78;1.38;;;;;;;11.98;47.11;100286.31;9092474;26;20498;-80
2024/04/17 17:25:19;;;;;;;1.75;0.95;;;;;;;12.30;48.16;100282.97;9071616;26;20055;-81
2024/04/17 17:29:20;;;;;;;5.82;1.73;;;;;;;12.12;48.72;100296.09;9102521;26;20006;-81
2024/04/17 17:33:23;;;;;;;2.75;1.00;;;;;;;11.88;50.32;100293.88;9046836;26;19998;-83
2024/04/17 17:37:26;;;;;;;3.17;1.33;;;;;;;11.09;52.34;100302.03;9052490;26;20006;-84
2024/04/17 17:41:27;;;;;;;2.33;1.10;;;;;;;10.93;53.66;100310.31;9068667;26;20021;-83
2024/04/17 17:45:29;;;;;;;4.65;2.05;;;;;;;10.23;56.38;100317.06;9099150;26;20486;-82
2024/04/17 17:49:31;;;;;;;3.40;1.40;;;;;;;10.09;57.36;100312.56;9096292;26;20080;-83
2024/04/17 17:53:33;;;;;;;2.83;1.00;;;;;;;9.79;58.82;100335.75;9068686;26;20014;-82
2024/04/17 17:57:40;;;;;;;6.32;3.60;;;;;;;9.69;60.04;100322.63;9100994;26;20002;-82
2024/04/17 18:01:43;;;;;;;3.15;1.75;;;;;;;9.55;60.60;100326.13;9098730;26;20115;-83
2024/04/17 18:06:02;;;;;;;7.43;3.42;;;;;;;9.44;62.48;100340.75;9090924;26;20006;-79
2024/04/17 18:10:04;;;;;;;2.75;1.38;;;;;;;9.33;61.62;100341.97;9060715;26;19998;-82
2024/04/17 18:14:06;;;;;;;1.80;1.25;;;;;;;8.92;63.35;100344.09;9090547;26;20007;-80
2024/04/17 18:18:10;;;;;;;4.00;1.48;;;;;;;8.60;65.36;100350.44;9005170;26;20003;-85
2024/04/17 18:22:12;;;;;;;2.03;1.38;;;;;;;8.76;65.04;100353.03;9072266;26;20048;-81
2024/04/17 18:26:16;;;;;;;2.95;1.60;;;;;;;8.57;65.35;100357.97;9097930;26;19999;-85
2024/04/17 18:30:19;;;;;;;2.50;1.40;;;;;;;8.54;65.94;100366.31;9064446;26;19998;-83
2024/04/17 18:34:21;;;;;;;3.88;2.00;;;;;;;8.31;67.30;100368.84;9100422;26;20002;-83
2024/04/17 18:38:23;;;;;;;3.33;1.77;;;;;;;7.81;69.53;100375.31;9106357;26;20006;-79
2024/04/17 18:42:25;;;;;;;3.03;1.80;;;;;;;8.06;69.66;100373.44;9116782;25;19998;-78
2024/04/17 18:46:27;;;;;;;3.20;1.52;;;;;;;8.14;67.60;100378.72;9127848;26;20018;-79
2024/04/17 18:50:30;;;;;;;2.75;1.65;;;;;;;7.81;69.08;100391.31;9105776;26;20018;-78
2024/04/17 18:54:32;;;;;;;4.30;1.50;;;;;;;7.90;69.68;100408.13;9105657;26;20020;-79